Time,TemperatureF,DewpointF,PressureIn,WindDirection,WindDirectionDegrees,WindSpeedMPH,WindSpeedGustMPH,Humidity,HourlyPrecipIn,Conditions,Clouds,dailyrainin,SoftwareType,DateUTC
2013-09-26 00:01:00,50.8,50.0,29.98,North,9,0.0,0.0,96,0.00,,,0.00,weatherlink.com 1.10,2013-09-26 05:01:00,
2013-09-26 00:06:00,50.1,48.7,29.98,West,263,0.0,0.0,95,0.00,,,0.00,Wunderground v.1.15,2013-09-26 05:06:00,
2013-09-26 00:12:00,48.6,46.7,29.98,West,264,0.0,0.0,93,0.00,,,0.00,Wunderground v.1.15,2013-09-26 05:12:00,
2013-09-26 00:17:00,48.1,46.5,29.98,West,264,0.0,0.0,94,0.00,,,0.00,Wunderground v.1.15,2013-09-26 05:17:00,
2013-09-26 00:23:00,48.2,46.8,29.98,SSW,207,0.0,0.0,95,0.00,,,0.00,Wunderground v.1.15,2013-09-26 05:23:00,
2013-09-26 00:29:00,49.0,47.9,29.98,South,169,0.0,0.0,96,0.00,,,0.00,Wunderground v.1.15,2013-09-26 05:29:00,
2013-09-26 00:35:00,50.5,49.4,29.98,North,1,0.0,0.0,96,0.00,,,0.00,Wunderground v.1.15,2013-09-26 05:35:00,
2013-09-26 00:40:00,51.3,50.5,29.98,NNE,15,0.0,0.0,97,0.00,,,0.00,Wunderground v.1.15,2013-09-26 05:40:00,
2013-09-26 00:46:00,51.8,51.0,29.97,North,5,0.0,0.0,97,0.00,,,0.00,Wunderground v.1.15,2013-09-26 05:46:00,
2013-09-26 00:52:00,52.1,51.3,29.98,NE,34,0.0,0.0,97,0.00,,,0.00,Wunderground v.1.15,2013-09-26 05:52:00,
2013-09-26 00:57:00,52.3,51.2,29.98,NNE,15,0.0,0.0,96,0.00,,,0.00,Wunderground v.1.15,2013-09-26 05:57:00,
2013-09-26 01:03:00,52.4,51.3,29.98,North,360,0.0,0.0,96,0.00,,,0.00,Wunderground v.1.15,2013-09-26 06:03:00,
2013-09-26 01:08:00,52.4,51.3,29.98,NNE,16,0.0,0.0,96,0.00,,,0.00,Wunderground v.1.15,2013-09-26 06:08:00,
2013-09-26 01:14:00,52.4,51.3,29.98,NNE,16,0.0,0.0,96,0.00,,,0.00,Wunderground v.1.15,2013-09-26 06:14:00,
2013-09-26 01:19:00,52.3,50.9,29.98,North,9,0.0,0.0,95,0.00,,,0.00,Wunderground v.1.15,2013-09-26 06:19:00,
2013-09-26 01:24:00,52.3,50.9,29.98,North,1,0.0,0.0,95,0.00,,,0.00,Wunderground v.1.15,2013-09-26 06:24:00,
2013-09-26 01:30:00,52.2,51.0,29.98,NNE,14,0.0,0.0,95,0.00,,,0.00,weatherlink.com 1.10,2013-09-26 06:30:00,
2013-09-26 01:35:00,52.3,50.9,29.98,NE,34,0.0,0.0,95,0.00,,,0.00,Wunderground v.1.15,2013-09-26 06:35:00,
2013-09-26 01:41:00,52.1,50.7,29.98,NE,34,0.0,0.0,95,0.00,,,0.00,Wunderground v.1.15,2013-09-26 06:41:00,
2013-09-26 01:46:00,52.3,51.2,29.98,NNE,14,0.0,0.0,96,0.00,,,0.00,Wunderground v.1.15,2013-09-26 06:46:00,
2013-09-26 01:52:00,52.4,51.0,29.99,NNE,15,0.0,1.0,95,0.00,,,0.00,Wunderground v.1.15,2013-09-26 06:52:00,
2013-09-26 01:58:00,52.4,51.0,29.99,NNW,331,1.0,2.0,95,0.00,,,0.00,Wunderground v.1.15,2013-09-26 06:58:00,
2013-09-26 02:03:00,52.4,51.0,29.99,NNE,12,1.0,3.0,95,0.00,,,0.00,Wunderground v.1.15,2013-09-26 07:03:00,
2013-09-26 02:08:00,52.4,51.0,29.99,North,356,1.0,3.0,95,0.00,,,0.00,Wunderground v.1.15,2013-09-26 07:08:00,
2013-09-26 02:13:00,52.4,51.0,29.99,North,350,2.0,2.0,95,0.00,,,0.00,Wunderground v.1.15,2013-09-26 07:13:00,
2013-09-26 02:18:00,52.4,51.0,29.99,WNW,286,0.0,2.0,95,0.00,,,0.00,Wunderground v.1.15,2013-09-26 07:18:00,
2013-09-26 02:23:00,52.2,50.8,30.00,WNW,287,0.0,1.0,95,0.00,,,0.00,Wunderground v.1.15,2013-09-26 07:23:00,
2013-09-26 02:28:00,52.4,51.0,29.99,North,352,0.0,1.0,95,0.00,,,0.00,Wunderground v.1.15,2013-09-26 07:28:00,
2013-09-26 02:33:00,52.3,50.9,30.00,North,354,0.0,0.0,95,0.00,,,0.00,Wunderground v.1.15,2013-09-26 07:33:00,
2013-09-26 02:38:00,52.2,50.8,30.00,SSW,210,0.0,0.0,95,0.00,,,0.00,Wunderground v.1.15,2013-09-26 07:38:00,
2013-09-26 02:43:00,52.0,50.6,30.00,SSW,210,0.0,0.0,95,0.00,,,0.00,Wunderground v.1.15,2013-09-26 07:43:00,
2013-09-26 02:48:00,51.8,50.4,30.00,SSW,210,0.0,0.0,95,0.00,,,0.00,Wunderground v.1.15,2013-09-26 07:48:00,
2013-09-26 02:53:00,52.1,51.0,30.00,NNE,15,0.0,0.0,96,0.00,,,0.00,Wunderground v.1.15,2013-09-26 07:53:00,
2013-09-26 02:58:00,52.1,51.0,30.00,NNE,15,0.0,0.0,96,0.00,,,0.00,Wunderground v.1.15,2013-09-26 07:58:00,
2013-09-26 03:04:00,52.2,50.8,30.00,NNW,345,0.0,3.0,95,0.00,,,0.00,Wunderground v.1.15,2013-09-26 08:04:00,
2013-09-26 03:09:00,52.2,51.1,30.01,NNW,335,0.0,3.0,96,0.00,,,0.00,Wunderground v.1.15,2013-09-26 08:09:00,
2013-09-26 03:14:00,52.4,51.3,30.01,North,358,0.0,2.0,96,0.00,,,0.00,Wunderground v.1.15,2013-09-26 08:14:00,
2013-09-26 03:19:00,52.5,51.4,30.01,North,358,0.0,2.0,96,0.00,,,0.00,Wunderground v.1.15,2013-09-26 08:19:00,
2013-09-26 03:24:00,52.5,51.4,30.01,WSW,245,0.0,1.0,96,0.00,,,0.00,Wunderground v.1.15,2013-09-26 08:24:00,
2013-09-26 03:29:00,52.4,51.0,30.01,NW,322,0.0,1.0,95,0.00,,,0.00,Wunderground v.1.15,2013-09-26 08:29:00,
2013-09-26 03:34:00,52.6,51.5,30.01,North,4,0.0,2.0,96,0.00,,,0.00,Wunderground v.1.15,2013-09-26 08:34:00,
2013-09-26 03:39:00,52.8,51.7,30.01,NNE,16,1.0,4.0,96,0.00,,,0.00,Wunderground v.1.15,2013-09-26 08:39:00,
2013-09-26 03:44:00,52.8,51.7,30.01,NE,40,1.0,2.0,96,0.00,,,0.00,Wunderground v.1.15,2013-09-26 08:44:00,
2013-09-26 03:49:00,52.9,51.8,30.01,North,6,1.0,3.0,96,0.00,,,0.01,Wunderground v.1.15,2013-09-26 08:49:00,
2013-09-26 03:54:00,53.1,52.0,30.01,NNE,26,1.0,2.0,96,0.00,,,0.01,Wunderground v.1.15,2013-09-26 08:54:00,
2013-09-26 03:59:00,53.1,52.0,30.01,North,9,1.0,3.0,96,0.00,,,0.01,Wunderground v.1.15,2013-09-26 08:59:00,
2013-09-26 04:04:00,53.0,51.6,30.02,North,359,1.0,4.0,95,0.00,,,0.01,Wunderground v.1.15,2013-09-26 09:04:00,
2013-09-26 04:09:00,53.0,51.6,30.01,NNE,26,1.0,4.0,95,0.00,,,0.01,Wunderground v.1.15,2013-09-26 09:09:00,
2013-09-26 04:14:00,52.9,51.5,30.01,North,5,0.0,2.0,95,0.00,,,0.01,Wunderground v.1.15,2013-09-26 09:14:00,
2013-09-26 04:19:00,52.9,51.5,30.02,NNE,22,0.0,2.0,95,0.00,,,0.01,Wunderground v.1.15,2013-09-26 09:19:00,
2013-09-26 04:24:00,52.8,51.4,30.02,NE,34,0.0,0.0,95,0.00,,,0.01,Wunderground v.1.15,2013-09-26 09:24:00,
2013-09-26 04:29:00,52.9,51.8,30.02,North,356,1.0,2.0,96,0.00,,,0.01,Wunderground v.1.15,2013-09-26 09:29:00,
2013-09-26 04:34:00,52.9,51.8,30.02,NNE,13,0.0,2.0,96,0.00,,,0.01,Wunderground v.1.15,2013-09-26 09:34:00,
2013-09-26 04:39:00,52.9,51.8,30.02,NNE,15,0.0,2.0,96,0.00,,,0.01,Wunderground v.1.15,2013-09-26 09:39:00,
2013-09-26 04:44:00,52.8,51.7,30.02,NNW,338,0.0,0.0,96,0.00,,,0.01,Wunderground v.1.15,2013-09-26 09:44:00,
2013-09-26 04:49:00,52.8,51.4,30.02,North,359,1.0,2.0,95,0.00,,,0.01,Wunderground v.1.15,2013-09-26 09:49:00,
2013-09-26 04:54:00,52.8,51.7,30.02,North,356,1.0,2.0,96,0.00,,,0.01,Wunderground v.1.15,2013-09-26 09:54:00,
2013-09-26 04:59:00,52.8,51.7,30.02,NNE,13,1.0,3.0,96,0.00,,,0.01,Wunderground v.1.15,2013-09-26 09:59:00,
2013-09-26 05:04:00,52.8,51.7,30.02,NNE,20,0.0,1.0,96,0.00,,,0.01,Wunderground v.1.15,2013-09-26 10:04:00,
2013-09-26 05:09:00,52.8,51.7,30.03,NNE,13,0.0,2.0,96,0.00,,,0.01,Wunderground v.1.15,2013-09-26 10:09:00,
2013-09-26 05:14:00,53.0,51.9,30.03,North,4,0.0,2.0,96,0.00,,,0.01,Wunderground v.1.15,2013-09-26 10:14:00,
2013-09-26 05:19:00,53.1,52.0,30.02,North,10,0.0,2.0,96,0.00,,,0.01,Wunderground v.1.15,2013-09-26 10:19:00,
2013-09-26 05:24:00,53.2,52.1,30.03,NNE,26,0.0,0.0,96,0.00,,,0.01,Wunderground v.1.15,2013-09-26 10:24:00,
2013-09-26 05:29:00,53.2,52.1,30.03,NE,44,0.0,0.0,96,0.00,,,0.01,Wunderground v.1.15,2013-09-26 10:29:00,
2013-09-26 05:34:00,53.4,52.3,30.03,NNE,20,0.0,0.0,96,0.00,,,0.01,Wunderground v.1.15,2013-09-26 10:34:00,
2013-09-26 05:39:00,53.4,52.3,30.03,North,5,0.0,0.0,96,0.00,,,0.01,Wunderground v.1.15,2013-09-26 10:39:00,
2013-09-26 05:44:00,53.4,52.3,30.03,NNE,15,0.0,0.0,96,0.00,,,0.01,Wunderground v.1.15,2013-09-26 10:44:00,
2013-09-26 05:49:00,53.2,52.1,30.03,NNE,14,0.0,0.0,96,0.00,,,0.01,Wunderground v.1.15,2013-09-26 10:49:00,
2013-09-26 05:54:00,53.1,52.0,30.03,SW,229,0.0,0.0,96,0.00,,,0.01,Wunderground v.1.15,2013-09-26 10:54:00,
2013-09-26 05:59:00,53.1,52.0,30.03,SW,228,0.0,0.0,96,0.00,,,0.01,Wunderground v.1.15,2013-09-26 10:59:00,
2013-09-26 06:04:00,52.9,51.8,30.04,SW,229,0.0,0.0,96,0.00,,,0.01,Wunderground v.1.15,2013-09-26 11:04:00,
2013-09-26 06:09:00,52.6,51.2,30.04,SW,232,0.0,0.0,95,0.00,,,0.01,Wunderground v.1.15,2013-09-26 11:09:00,
2013-09-26 06:14:00,52.8,51.7,30.04,NW,311,0.0,0.0,96,0.00,,,0.01,Wunderground v.1.15,2013-09-26 11:14:00,
2013-09-26 06:19:00,52.9,51.8,30.04,NNE,18,0.0,0.0,96,0.00,,,0.01,Wunderground v.1.15,2013-09-26 11:19:00,
2013-09-26 06:24:00,53.0,51.9,30.04,NE,37,0.0,0.0,96,0.00,,,0.01,Wunderground v.1.15,2013-09-26 11:24:00,
2013-09-26 06:29:00,53.1,52.0,30.04,NE,51,0.0,0.0,96,0.00,,,0.01,Wunderground v.1.15,2013-09-26 11:29:00,
2013-09-26 06:34:00,53.2,52.1,30.05,NE,55,0.0,0.0,96,0.00,,,0.01,Wunderground v.1.15,2013-09-26 11:34:00,
2013-09-26 06:39:00,53.3,52.2,30.04,ENE,57,0.0,0.0,96,0.00,,,0.01,Wunderground v.1.15,2013-09-26 11:39:00,
2013-09-26 06:44:00,52.9,51.8,30.04,ENE,57,0.0,0.0,96,0.00,,,0.01,Wunderground v.1.15,2013-09-26 11:44:00,
2013-09-26 06:49:00,53.5,52.4,30.05,East,86,0.0,0.0,96,0.00,,,0.01,Wunderground v.1.15,2013-09-26 11:49:00,
2013-09-26 06:54:00,53.8,53.0,30.05,ENE,63,0.0,0.0,97,0.00,,,0.01,Wunderground v.1.15,2013-09-26 11:54:00,
2013-09-26 06:59:00,54.1,53.3,30.05,ENE,77,0.0,0.0,97,0.00,,,0.01,Wunderground v.1.15,2013-09-26 11:59:00,
2013-09-26 07:05:00,54.3,53.2,30.05,ENE,78,0.0,0.0,96,0.00,,,0.01,Wunderground v.1.15,2013-09-26 12:05:00,
2013-09-26 07:10:00,54.7,53.6,30.05,ENE,77,0.0,0.0,96,0.00,,,0.01,Wunderground v.1.15,2013-09-26 12:10:00,
2013-09-26 07:15:00,55.3,54.2,30.05,ENE,78,0.0,0.0,96,0.00,,,0.01,Wunderground v.1.15,2013-09-26 12:15:00,
2013-09-26 07:20:00,54.3,52.3,30.06,ENE,78,0.0,0.0,93,0.00,,,0.01,Wunderground v.1.15,2013-09-26 12:20:00,
2013-09-26 07:25:00,52.9,50.9,30.06,ENE,78,0.0,0.0,93,0.00,,,0.01,Wunderground v.1.15,2013-09-26 12:25:00,
2013-09-26 07:30:00,52.6,50.9,30.05,ENE,78,0.0,0.0,94,0.00,,,0.01,Wunderground v.1.15,2013-09-26 12:30:00,
2013-09-26 07:35:00,52.7,51.0,30.06,ENE,77,0.0,0.0,94,0.00,,,0.01,Wunderground v.1.15,2013-09-26 12:35:00,
2013-09-26 07:40:00,53.1,51.7,30.06,ENE,77,0.0,0.0,95,0.00,,,0.01,Wunderground v.1.15,2013-09-26 12:40:00,
2013-09-26 07:45:00,55.1,54.0,30.05,ENE,76,0.0,0.0,96,0.00,,,0.01,Wunderground v.1.15,2013-09-26 12:45:00,
2013-09-26 07:50:00,57.0,56.2,30.06,ENE,76,1.0,3.0,97,0.00,,,0.01,Wunderground v.1.15,2013-09-26 12:50:00,
2013-09-26 07:55:00,57.8,57.0,30.06,East,86,1.0,2.0,97,0.00,,,0.01,Wunderground v.1.15,2013-09-26 12:55:00,
2013-09-26 08:00:00,58.2,57.4,30.06,East,79,0.0,1.0,97,0.00,,,0.01,Wunderground v.1.15,2013-09-26 13:00:00,
2013-09-26 08:05:00,58.7,57.6,30.06,East,82,0.0,1.0,96,0.00,,,0.01,Wunderground v.1.15,2013-09-26 13:05:00,
2013-09-26 08:10:00,59.0,57.9,30.06,East,91,1.0,1.0,96,0.00,,,0.01,Wunderground v.1.15,2013-09-26 13:10:00,
2013-09-26 08:15:00,59.8,58.7,30.06,East,89,0.0,1.0,96,0.00,,,0.01,Wunderground v.1.15,2013-09-26 13:15:00,
2013-09-26 08:20:00,60.0,58.6,30.06,ENE,72,2.0,2.0,95,0.00,,,0.01,Wunderground v.1.15,2013-09-26 13:20:00,
2013-09-26 08:25:00,60.0,58.3,30.06,ENE,66,2.0,4.0,94,0.00,,,0.01,Wunderground v.1.15,2013-09-26 13:25:00,
2013-09-26 08:30:00,60.2,58.5,30.06,ENE,73,1.0,1.0,94,0.00,,,0.01,Wunderground v.1.15,2013-09-26 13:30:00,
2013-09-26 08:35:00,61.0,59.6,30.06,ENE,78,0.0,1.0,95,0.00,,,0.01,Wunderground v.1.15,2013-09-26 13:35:00,
2013-09-26 08:40:00,61.6,59.9,30.06,SE,125,0.0,0.0,94,0.00,,,0.01,Wunderground v.1.15,2013-09-26 13:40:00,
2013-09-26 08:45:00,61.9,59.9,30.06,ESE,107,1.0,3.0,93,0.00,,,0.01,Wunderground v.1.15,2013-09-26 13:45:00,
2013-09-26 08:50:00,62.2,59.8,30.06,ENE,71,1.0,2.0,92,0.00,,,0.01,Wunderground v.1.15,2013-09-26 13:50:00,
2013-09-26 08:55:00,62.4,59.7,30.07,SE,129,1.0,3.0,91,0.00,,,0.01,Wunderground v.1.15,2013-09-26 13:55:00,
2013-09-26 09:00:00,62.8,60.1,30.07,East,79,2.0,4.0,91,0.00,,,0.01,Wunderground v.1.15,2013-09-26 14:00:00,
2013-09-26 09:05:00,63.2,60.2,30.07,East,92,3.0,4.0,90,0.00,,,0.01,Wunderground v.1.15,2013-09-26 14:05:00,
2013-09-26 09:10:00,63.5,60.5,30.07,East,85,3.0,4.0,90,0.00,,,0.01,Wunderground v.1.15,2013-09-26 14:10:00,
2013-09-26 09:15:00,63.9,60.3,30.07,ENE,70,2.0,6.0,88,0.00,,,0.01,Wunderground v.1.15,2013-09-26 14:15:00,
2013-09-26 09:20:00,64.4,60.4,30.07,SE,141,2.0,2.0,87,0.00,,,0.01,Wunderground v.1.15,2013-09-26 14:20:00,
2013-09-26 09:25:00,64.7,60.1,30.07,SE,134,2.0,4.0,85,0.00,,,0.01,Wunderground v.1.15,2013-09-26 14:25:00,
2013-09-26 09:30:00,65.0,60.7,30.07,SE,128,0.0,2.0,86,0.00,,,0.01,Wunderground v.1.15,2013-09-26 14:30:00,
2013-09-26 09:35:00,65.5,60.9,30.07,East,98,0.0,6.0,85,0.00,,,0.01,Wunderground v.1.15,2013-09-26 14:35:00,
2013-09-26 09:40:00,65.7,60.4,30.07,SE,145,0.0,1.0,83,0.00,,,0.01,Wunderground v.1.15,2013-09-26 14:40:00,
2013-09-26 09:45:00,66.1,61.1,30.07,NE,55,2.0,3.0,84,0.00,,,0.01,Wunderground v.1.15,2013-09-26 14:45:00,
2013-09-26 09:50:00,66.6,61.3,30.07,SSE,161,0.0,2.0,83,0.00,,,0.01,Wunderground v.1.15,2013-09-26 14:50:00,
2013-09-26 09:55:00,66.8,60.4,30.07,ENE,70,2.0,4.0,80,0.00,,,0.01,Wunderground v.1.15,2013-09-26 14:55:00,
2013-09-26 10:00:00,67.3,62.0,30.06,ESE,108,0.0,1.0,83,0.00,,,0.01,Wunderground v.1.15,2013-09-26 15:00:00,
2013-09-26 10:05:00,67.9,61.5,30.06,East,98,4.0,4.0,80,0.00,,,0.01,Wunderground v.1.15,2013-09-26 15:05:00,
2013-09-26 10:10:00,67.8,60.0,30.06,East,80,3.0,3.0,76,0.00,,,0.01,Wunderground v.1.15,2013-09-26 15:10:00,
2013-09-26 10:15:00,67.7,59.5,30.06,SE,146,2.0,5.0,75,0.00,,,0.01,Wunderground v.1.15,2013-09-26 15:15:00,
2013-09-26 10:20:00,68.0,60.2,30.06,ESE,120,1.0,2.0,76,0.00,,,0.01,Wunderground v.1.15,2013-09-26 15:20:00,
2013-09-26 10:25:00,68.6,60.7,30.06,ESE,122,1.0,6.0,76,0.00,,,0.01,Wunderground v.1.15,2013-09-26 15:25:00,
2013-09-26 10:30:00,68.9,59.9,30.06,ESE,115,1.0,2.0,73,0.00,,,0.01,Wunderground v.1.15,2013-09-26 15:30:00,
2013-09-26 10:35:00,69.2,59.0,30.06,East,82,4.0,8.0,70,0.00,,,0.01,Wunderground v.1.15,2013-09-26 15:35:00,
2013-09-26 10:40:00,69.0,58.0,30.06,ENE,68,3.0,6.0,68,0.00,,,0.01,Wunderground v.1.15,2013-09-26 15:40:00,
2013-09-26 10:45:00,68.8,57.8,30.06,East,84,3.0,6.0,68,0.00,,,0.01,Wunderground v.1.15,2013-09-26 15:45:00,
2013-09-26 10:50:00,69.1,57.7,30.06,NE,41,3.0,6.0,67,0.00,,,0.01,Wunderground v.1.15,2013-09-26 15:50:00,
2013-09-26 10:55:00,69.1,57.3,30.06,ESE,118,0.0,10.0,66,0.00,,,0.01,Wunderground v.1.15,2013-09-26 15:55:00,
2013-09-26 11:00:00,69.7,57.8,30.06,ESE,108,2.0,3.0,66,0.00,,,0.01,Wunderground v.1.15,2013-09-26 16:00:00,
2013-09-26 11:05:00,69.9,57.2,30.06,East,99,1.0,6.0,64,0.00,,,0.01,Wunderground v.1.15,2013-09-26 16:05:00,
2013-09-26 11:10:00,70.1,59.0,30.06,ENE,61,3.0,3.0,68,0.00,,,0.01,Wunderground v.1.15,2013-09-26 16:10:00,
2013-09-26 11:16:00,70.4,57.6,30.06,East,88,4.0,6.0,64,0.00,,,0.01,Wunderground v.1.15,2013-09-26 16:16:00,
2013-09-26 11:21:00,70.3,58.0,30.06,East,86,3.0,6.0,65,0.00,,,0.01,Wunderground v.1.15,2013-09-26 16:21:00,
2013-09-26 11:26:00,70.3,58.0,30.06,NE,53,2.0,6.0,65,0.00,,,0.01,Wunderground v.1.15,2013-09-26 16:26:00,
2013-09-26 11:31:00,70.3,57.1,30.06,ENE,57,1.0,3.0,63,0.00,,,0.01,Wunderground v.1.15,2013-09-26 16:31:00,
2013-09-26 11:36:00,70.4,58.1,30.06,ESE,123,2.0,5.0,65,0.00,,,0.01,Wunderground v.1.15,2013-09-26 16:36:00,
2013-09-26 11:41:00,70.5,58.6,30.06,SE,143,2.0,2.0,66,0.00,,,0.01,Wunderground v.1.15,2013-09-26 16:41:00,
2013-09-26 11:46:00,70.6,57.8,30.06,SSE,147,2.0,6.0,64,0.00,,,0.01,Wunderground v.1.15,2013-09-26 16:46:00,
2013-09-26 11:51:00,71.0,57.8,30.05,East,87,1.0,3.0,63,0.00,,,0.01,Wunderground v.1.15,2013-09-26 16:51:00,
2013-09-26 11:56:00,71.6,57.9,30.05,SSE,152,2.0,6.0,62,0.00,,,0.01,Wunderground v.1.15,2013-09-26 16:56:00,
2013-09-26 12:01:00,71.1,57.4,30.06,ENE,75,2.0,5.0,62,0.00,,,0.01,Wunderground v.1.15,2013-09-26 17:01:00,
2013-09-26 12:06:00,71.1,56.5,30.05,ESE,109,0.0,6.0,60,0.00,,,0.01,Wunderground v.1.15,2013-09-26 17:06:00,
2013-09-26 12:11:00,71.8,58.1,30.05,SW,224,1.0,2.0,62,0.00,,,0.01,Wunderground v.1.15,2013-09-26 17:11:00,
2013-09-26 12:16:00,72.1,57.0,30.06,East,100,3.0,7.0,59,0.00,,,0.01,Wunderground v.1.15,2013-09-26 17:16:00,
2013-09-26 12:21:00,71.7,57.5,30.06,East,99,2.0,3.0,61,0.00,,,0.01,Wunderground v.1.15,2013-09-26 17:21:00,
2013-09-26 12:26:00,71.9,58.2,30.06,East,81,5.0,6.0,62,0.00,,,0.01,Wunderground v.1.15,2013-09-26 17:26:00,
2013-09-26 12:31:00,72.2,58.0,30.05,ESE,108,3.0,4.0,61,0.00,,,0.01,Wunderground v.1.15,2013-09-26 17:31:00,
2013-09-26 12:36:00,72.2,58.5,30.05,ENE,65,4.0,9.0,62,0.00,,,0.01,Wunderground v.1.15,2013-09-26 17:36:00,
2013-09-26 12:41:00,72.6,57.9,30.05,ENE,64,0.0,2.0,60,0.00,,,0.01,Wunderground v.1.15,2013-09-26 17:41:00,
2013-09-26 12:46:00,72.9,58.2,30.05,South,188,3.0,7.0,60,0.00,,,0.01,Wunderground v.1.15,2013-09-26 17:46:00,
2013-09-26 12:51:00,73.3,57.6,30.05,East,97,1.0,5.0,58,0.00,,,0.01,Wunderground v.1.15,2013-09-26 17:51:00,
2013-09-26 12:56:00,73.6,57.9,30.05,East,96,4.0,5.0,58,0.00,,,0.01,Wunderground v.1.15,2013-09-26 17:56:00,
2013-09-26 13:01:00,73.5,57.8,30.05,SE,128,0.0,3.0,58,0.00,,,0.01,Wunderground v.1.15,2013-09-26 18:01:00,
2013-09-26 13:06:00,73.5,57.8,30.05,ESE,105,2.0,5.0,58,0.00,,,0.01,Wunderground v.1.15,2013-09-26 18:06:00,
2013-09-26 13:11:00,73.6,57.4,30.05,SE,139,3.0,6.0,57,0.00,,,0.01,Wunderground v.1.15,2013-09-26 18:11:00,
2013-09-26 13:16:00,73.7,59.4,30.05,East,79,3.0,6.0,61,0.00,,,0.01,Wunderground v.1.15,2013-09-26 18:16:00,
2013-09-26 13:21:00,73.4,58.2,30.05,East,86,6.0,6.0,59,0.00,,,0.01,Wunderground v.1.15,2013-09-26 18:21:00,
2013-09-26 13:26:00,73.1,58.4,30.04,East,90,1.0,6.0,60,0.00,,,0.01,Wunderground v.1.15,2013-09-26 18:26:00,
2013-09-26 13:31:00,73.7,58.9,30.05,East,82,3.0,7.0,60,0.00,,,0.01,Wunderground v.1.15,2013-09-26 18:31:00,
2013-09-26 13:37:00,73.3,56.7,30.04,East,87,1.0,7.0,56,0.00,,,0.01,Wunderground v.1.15,2013-09-26 18:37:00,
2013-09-26 13:42:00,73.4,56.7,30.04,East,84,0.0,3.0,56,0.00,,,0.01,Wunderground v.1.15,2013-09-26 18:42:00,
2013-09-26 13:47:00,73.6,57.4,30.04,SE,132,4.0,6.0,57,0.00,,,0.01,Wunderground v.1.15,2013-09-26 18:47:00,
2013-09-26 13:52:00,74.1,58.4,30.04,SE,139,4.0,5.0,58,0.00,,,0.01,Wunderground v.1.15,2013-09-26 18:52:00,
2013-09-26 13:57:00,74.1,57.4,30.04,East,96,3.0,9.0,56,0.00,,,0.01,Wunderground v.1.15,2013-09-26 18:57:00,
2013-09-26 14:02:00,73.9,57.2,30.03,ENE,70,2.0,4.0,56,0.00,,,0.01,Wunderground v.1.15,2013-09-26 19:02:00,
2013-09-26 14:07:00,74.4,57.7,30.03,East,95,1.0,5.0,56,0.00,,,0.01,Wunderground v.1.15,2013-09-26 19:07:00,
2013-09-26 14:12:00,74.6,57.4,30.04,ESE,119,2.0,6.0,55,0.00,,,0.01,Wunderground v.1.15,2013-09-26 19:12:00,
2013-09-26 14:17:00,74.3,57.1,30.03,East,83,1.0,8.0,55,0.00,,,0.01,Wunderground v.1.15,2013-09-26 19:17:00,
2013-09-26 14:22:00,74.5,57.3,30.03,NE,49,2.0,3.0,55,0.00,,,0.01,Wunderground v.1.15,2013-09-26 19:22:00,
2013-09-26 14:27:00,74.4,56.2,30.04,ENE,65,3.0,9.0,53,0.00,,,0.01,Wunderground v.1.15,2013-09-26 19:27:00,
2013-09-26 14:32:00,74.1,57.4,30.04,East,82,4.0,5.0,56,0.00,,,0.01,Wunderground v.1.15,2013-09-26 19:32:00,
2013-09-26 14:37:00,73.7,57.5,30.03,East,95,3.0,8.0,57,0.00,,,0.01,Wunderground v.1.15,2013-09-26 19:37:00,
2013-09-26 14:42:00,73.9,56.7,30.03,East,87,1.0,5.0,55,0.00,,,0.01,Wunderground v.1.15,2013-09-26 19:42:00,
2013-09-26 14:47:00,74.5,54.6,30.04,SE,141,2.0,6.0,50,0.00,,,0.01,Wunderground v.1.15,2013-09-26 19:47:00,
2013-09-26 14:52:00,74.7,57.5,30.03,ENE,60,5.0,6.0,55,0.00,,,0.01,Wunderground v.1.15,2013-09-26 19:52:00,
2013-09-26 14:57:00,75.0,57.7,30.04,East,101,2.0,6.0,55,0.00,,,0.01,Wunderground v.1.15,2013-09-26 19:57:00,
2013-09-26 15:02:00,74.7,57.5,30.04,SE,136,1.0,3.0,55,0.00,,,0.01,Wunderground v.1.15,2013-09-26 20:02:00,
2013-09-26 15:07:00,74.8,57.0,30.04,SSW,212,2.0,5.0,54,0.00,,,0.01,Wunderground v.1.15,2013-09-26 20:07:00,
2013-09-26 15:12:00,75.0,55.6,30.04,ENE,63,3.0,4.0,51,0.00,,,0.01,Wunderground v.1.15,2013-09-26 20:12:00,
2013-09-26 15:17:00,74.8,57.0,30.04,ENE,68,2.0,10.0,54,0.00,,,0.01,Wunderground v.1.15,2013-09-26 20:17:00,
2013-09-26 15:22:00,74.2,54.9,30.04,East,98,1.0,6.0,51,0.00,,,0.01,Wunderground v.1.15,2013-09-26 20:22:00,
2013-09-26 15:27:00,73.8,55.6,30.03,ENE,73,3.0,7.0,53,0.00,,,0.01,Wunderground v.1.15,2013-09-26 20:27:00,
2013-09-26 15:32:00,73.6,56.4,30.04,East,89,2.0,6.0,55,0.00,,,0.01,Wunderground v.1.15,2013-09-26 20:32:00,
2013-09-26 15:37:00,73.8,56.1,30.04,SSE,153,0.0,6.0,54,0.00,,,0.01,Wunderground v.1.15,2013-09-26 20:37:00,
2013-09-26 15:42:00,74.1,54.8,30.03,ENE,63,3.0,6.0,51,0.00,,,0.01,Wunderground v.1.15,2013-09-26 20:42:00,
2013-09-26 15:47:00,73.6,54.9,30.04,ESE,108,4.0,8.0,52,0.00,,,0.01,Wunderground v.1.15,2013-09-26 20:47:00,
2013-09-26 15:52:00,73.3,54.6,30.04,NE,56,2.0,9.0,52,0.00,,,0.01,Wunderground v.1.15,2013-09-26 20:52:00,
2013-09-26 15:57:00,73.1,54.9,30.03,ENE,71,3.0,9.0,53,0.00,,,0.01,Wunderground v.1.15,2013-09-26 20:57:00,
2013-09-26 16:02:00,73.3,55.1,30.03,NE,56,2.0,5.0,53,0.00,,,0.01,Wunderground v.1.15,2013-09-26 21:02:00,
2013-09-26 16:07:00,73.0,54.9,30.04,ENE,70,2.0,10.0,53,0.00,,,0.01,Wunderground v.1.15,2013-09-26 21:07:00,
2013-09-26 16:12:00,73.1,54.4,30.04,ENE,74,5.0,5.0,52,0.00,,,0.01,Wunderground v.1.15,2013-09-26 21:12:00,
2013-09-26 16:17:00,72.9,53.2,30.03,ENE,58,5.0,9.0,50,0.00,,,0.01,Wunderground v.1.15,2013-09-26 21:17:00,
2013-09-26 16:22:00,72.4,53.8,30.03,ENE,62,4.0,7.0,52,0.00,,,0.01,Wunderground v.1.15,2013-09-26 21:22:00,
2013-09-26 16:27:00,72.3,53.7,30.03,East,86,7.0,7.0,52,0.00,,,0.01,Wunderground v.1.15,2013-09-26 21:27:00,
2013-09-26 16:32:00,71.9,53.3,30.03,East,91,6.0,7.0,52,0.00,,,0.01,Wunderground v.1.15,2013-09-26 21:32:00,
2013-09-26 16:37:00,71.6,53.6,30.04,ENE,71,7.0,9.0,53,0.00,,,0.01,Wunderground v.1.15,2013-09-26 21:37:00,
2013-09-26 16:42:00,71.1,53.6,30.04,East,86,6.0,8.0,54,0.00,,,0.01,Wunderground v.1.15,2013-09-26 21:42:00,
2013-09-26 16:48:00,70.9,52.9,30.04,East,91,3.0,8.0,53,0.00,,,0.01,Wunderground v.1.15,2013-09-26 21:48:00,
2013-09-26 16:53:00,70.7,53.2,30.04,NE,56,5.0,7.0,54,0.00,,,0.01,Wunderground v.1.15,2013-09-26 21:53:00,
2013-09-26 16:58:00,70.6,53.1,30.04,ENE,65,3.0,8.0,54,0.00,,,0.01,Wunderground v.1.15,2013-09-26 21:58:00,
2013-09-26 17:03:00,70.3,52.9,30.04,ENE,68,4.0,8.0,54,0.00,,,0.01,Wunderground v.1.15,2013-09-26 22:03:00,
2013-09-26 17:08:00,69.8,52.4,30.04,ENE,65,4.0,9.0,54,0.00,,,0.01,Wunderground v.1.15,2013-09-26 22:08:00,
2013-09-26 17:13:00,69.6,52.7,30.04,ENE,68,6.0,6.0,55,0.00,,,0.01,Wunderground v.1.15,2013-09-26 22:13:00,
2013-09-26 17:18:00,69.4,52.5,30.04,ENE,74,3.0,9.0,55,0.00,,,0.01,Wunderground v.1.15,2013-09-26 22:18:00,
2013-09-26 17:23:00,69.1,52.7,30.04,ENE,65,2.0,6.0,56,0.00,,,0.01,Wunderground v.1.15,2013-09-26 22:23:00,
2013-09-26 17:28:00,69.0,52.2,30.04,ENE,76,5.0,6.0,55,0.00,,,0.01,Wunderground v.1.15,2013-09-26 22:28:00,
2013-09-26 17:33:00,68.6,51.8,30.04,ENE,63,3.0,9.0,55,0.00,,,0.01,Wunderground v.1.15,2013-09-26 22:33:00,
2013-09-26 17:38:00,68.4,52.6,30.04,ENE,72,4.0,9.0,57,0.00,,,0.01,Wunderground v.1.15,2013-09-26 22:38:00,
2013-09-26 17:43:00,67.9,51.6,30.05,ENE,61,3.0,9.0,56,0.00,,,0.01,Wunderground v.1.15,2013-09-26 22:43:00,
2013-09-26 17:48:00,67.6,51.8,30.04,ESE,106,2.0,10.0,57,0.00,,,0.01,Wunderground v.1.15,2013-09-26 22:48:00,
2013-09-26 17:53:00,67.3,51.5,30.04,ENE,70,5.0,8.0,57,0.00,,,0.01,Wunderground v.1.15,2013-09-26 22:53:00,
2013-09-26 17:58:00,66.9,51.2,30.04,NNE,32,3.0,8.0,57,0.00,,,0.01,Wunderground v.1.15,2013-09-26 22:58:00,
2013-09-26 18:03:00,66.5,51.3,30.05,NE,56,4.0,7.0,58,0.00,,,0.01,Wunderground v.1.15,2013-09-26 23:03:00,
2013-09-26 18:08:00,66.2,51.0,30.04,ENE,65,4.0,7.0,58,0.00,,,0.01,Wunderground v.1.15,2013-09-26 23:08:00,
2013-09-26 18:13:00,65.9,51.2,30.04,East,94,3.0,6.0,59,0.00,,,0.01,Wunderground v.1.15,2013-09-26 23:13:00,
2013-09-26 18:18:00,65.4,51.1,30.04,ESE,105,4.0,6.0,60,0.00,,,0.01,Wunderground v.1.15,2013-09-26 23:18:00,
2013-09-26 18:23:00,65.0,51.2,30.04,ENE,65,3.0,6.0,61,0.00,,,0.01,Wunderground v.1.15,2013-09-26 23:23:00,
2013-09-26 18:28:00,64.7,50.9,30.04,ENE,65,3.0,7.0,61,0.00,,,0.01,Wunderground v.1.15,2013-09-26 23:28:00,
2013-09-26 18:33:00,64.2,50.9,30.04,ENE,70,2.0,6.0,62,0.00,,,0.01,Wunderground v.1.15,2013-09-26 23:33:00,
2013-09-26 18:38:00,63.6,50.8,30.04,ENE,78,4.0,6.0,63,0.00,,,0.01,Wunderground v.1.15,2013-09-26 23:38:00,
2013-09-26 18:43:00,63.0,50.6,30.04,ENE,65,4.0,6.0,64,0.00,,,0.01,Wunderground v.1.15,2013-09-26 23:43:00,
2013-09-26 18:48:00,62.6,50.7,30.04,ENE,70,3.0,6.0,65,0.00,,,0.01,Wunderground v.1.15,2013-09-26 23:48:00,
2013-09-26 18:53:00,62.3,50.8,30.04,ENE,72,2.0,4.0,66,0.00,,,0.01,Wunderground v.1.15,2013-09-26 23:53:00,
2013-09-26 18:58:00,61.9,50.8,30.04,ENE,70,4.0,4.0,67,0.00,,,0.01,Wunderground v.1.15,2013-09-26 23:58:00,
2013-09-26 19:03:00,61.4,51.1,30.04,East,99,1.0,5.0,69,0.00,,,0.01,Wunderground v.1.15,2013-09-27 00:03:00,
2013-09-26 19:10:00,60.9,51.4,30.04,ENE,70,3.0,5.0,71,0.00,,,0.01,Wunderground v.1.15,2013-09-27 00:10:00,
2013-09-26 19:15:00,60.7,51.2,30.04,East,94,1.0,3.0,71,0.00,,,0.01,Wunderground v.1.15,2013-09-27 00:15:00,
2013-09-26 19:20:00,60.3,51.2,30.05,ENE,72,2.0,3.0,72,0.00,,,0.01,Wunderground v.1.15,2013-09-27 00:20:00,
2013-09-26 19:25:00,60.1,51.4,30.05,ENE,70,2.0,3.0,73,0.00,,,0.01,Wunderground v.1.15,2013-09-27 00:25:00,
2013-09-26 19:30:00,59.9,51.6,30.05,ENE,70,2.0,2.0,74,0.00,,,0.01,Wunderground v.1.15,2013-09-27 00:30:00,
2013-09-26 19:35:00,59.3,51.4,30.05,ENE,70,1.0,2.0,75,0.00,,,0.01,Wunderground v.1.15,2013-09-27 00:35:00,
2013-09-26 19:40:00,58.7,51.2,30.05,ENE,70,1.0,1.0,76,0.00,,,0.01,Wunderground v.1.15,2013-09-27 00:40:00,
2013-09-26 19:45:00,58.3,51.1,30.05,ENE,70,1.0,1.0,77,0.00,,,0.01,Wunderground v.1.15,2013-09-27 00:45:00,
2013-09-26 19:50:00,58.2,51.4,30.06,ENE,70,1.0,1.0,78,0.00,,,0.01,Wunderground v.1.15,2013-09-27 00:50:00,
2013-09-26 19:55:00,57.9,51.4,30.06,ENE,71,1.0,1.0,79,0.00,,,0.01,Wunderground v.1.15,2013-09-27 00:55:00,
2013-09-26 20:00:00,57.7,51.6,30.06,ENE,71,0.0,0.0,80,0.00,,,0.01,Wunderground v.1.15,2013-09-27 01:00:00,
2013-09-26 20:05:00,57.0,50.5,30.06,ENE,71,0.0,0.0,79,0.00,,,0.01,Wunderground v.1.15,2013-09-27 01:05:00,
2013-09-26 20:10:00,56.0,49.9,30.06,ENE,70,0.0,0.0,80,0.00,,,0.01,Wunderground v.1.15,2013-09-27 01:10:00,
2013-09-26 20:15:00,55.4,50.3,30.06,ENE,70,0.0,0.0,83,0.00,,,0.01,Wunderground v.1.15,2013-09-27 01:15:00,
2013-09-26 20:20:00,55.5,51.7,30.06,ENE,73,0.0,1.0,87,0.00,,,0.01,Wunderground v.1.15,2013-09-27 01:20:00,
2013-09-26 20:25:00,55.5,51.4,30.06,ENE,74,0.0,1.0,86,0.00,,,0.01,Wunderground v.1.15,2013-09-27 01:25:00,
2013-09-26 20:30:00,54.6,50.2,30.07,ENE,74,0.0,0.0,85,0.00,,,0.01,Wunderground v.1.15,2013-09-27 01:30:00,
2013-09-26 20:35:00,53.4,49.0,30.07,ENE,74,1.0,1.0,85,0.00,,,0.01,Wunderground v.1.15,2013-09-27 01:35:00,
2013-09-26 20:40:00,52.5,48.7,30.07,ENE,73,0.0,0.0,87,0.00,,,0.01,Wunderground v.1.15,2013-09-27 01:40:00,
2013-09-26 20:46:00,51.9,48.5,30.07,ENE,74,0.0,0.0,88,0.00,,,0.01,Wunderground v.1.15,2013-09-27 01:46:00,
2013-09-26 20:51:00,51.5,48.4,30.07,ENE,74,0.0,1.0,89,0.00,,,0.01,Wunderground v.1.15,2013-09-27 01:51:00,
2013-09-26 20:56:00,51.1,48.3,30.07,ENE,74,0.0,1.0,90,0.00,,,0.01,Wunderground v.1.15,2013-09-27 01:56:00,
2013-09-26 21:01:00,50.9,48.1,30.07,ENE,74,0.0,0.0,90,0.00,,,0.01,Wunderground v.1.15,2013-09-27 02:01:00,
2013-09-26 21:06:00,50.6,48.1,30.07,ENE,74,0.0,0.0,91,0.00,,,0.01,Wunderground v.1.15,2013-09-27 02:06:00,
2013-09-26 21:11:00,50.7,48.5,30.07,ENE,74,0.0,0.0,92,0.00,,,0.01,Wunderground v.1.15,2013-09-27 02:11:00,
2013-09-26 21:16:00,50.6,48.4,30.07,ENE,74,0.0,0.0,92,0.00,,,0.01,Wunderground v.1.15,2013-09-27 02:16:00,
2013-09-26 21:20:00,50.5,48.3,30.07,ENE,74,0.0,0.0,92,0.00,,,0.01,Wunderground v.1.15,2013-09-27 02:20:00,
2013-09-26 21:26:00,50.3,48.1,30.07,ENE,74,0.0,0.0,92,0.00,,,0.01,Wunderground v.1.15,2013-09-27 02:26:00,
2013-09-26 21:31:00,50.5,48.8,30.07,ENE,74,0.0,0.0,94,0.00,,,0.01,Wunderground v.1.15,2013-09-27 02:31:00,
2013-09-26 21:36:00,51.2,49.5,30.07,ENE,73,0.0,0.0,94,0.00,,,0.01,Wunderground v.1.15,2013-09-27 02:36:00,
2013-09-26 21:41:00,52.4,51.0,30.07,ENE,73,0.0,0.0,95,0.00,,,0.01,Wunderground v.1.15,2013-09-27 02:41:00,
2013-09-26 21:46:00,53.4,52.0,30.07,ENE,74,0.0,0.0,95,0.00,,,0.01,Wunderground v.1.15,2013-09-27 02:46:00,
2013-09-26 21:51:00,54.2,52.8,30.07,ENE,74,0.0,0.0,95,0.00,,,0.01,Wunderground v.1.15,2013-09-27 02:51:00,
2013-09-26 21:56:00,54.5,52.8,30.07,ENE,74,0.0,0.0,94,0.00,,,0.01,Wunderground v.1.15,2013-09-27 02:56:00,
2013-09-26 22:01:00,53.3,50.7,30.08,ENE,73,0.0,0.0,91,0.00,,,0.01,Wunderground v.1.15,2013-09-27 03:01:00,
2013-09-26 22:06:00,51.5,48.4,30.08,ENE,74,0.0,0.0,89,0.00,,,0.01,Wunderground v.1.15,2013-09-27 03:06:00,
2013-09-26 22:11:00,50.6,48.1,30.08,ENE,74,0.0,0.0,91,0.00,,,0.01,Wunderground v.1.15,2013-09-27 03:11:00,
2013-09-26 22:16:00,50.0,47.8,30.08,ENE,74,0.0,0.0,92,0.00,,,0.01,Wunderground v.1.15,2013-09-27 03:16:00,
2013-09-26 22:21:00,49.5,47.3,30.08,ENE,73,0.0,0.0,92,0.00,,,0.01,Wunderground v.1.15,2013-09-27 03:21:00,
2013-09-26 22:26:00,49.3,47.4,30.08,ENE,74,0.0,0.0,93,0.00,,,0.01,Wunderground v.1.15,2013-09-27 03:26:00,
2013-09-26 22:31:00,49.0,47.1,30.08,ENE,73,0.0,0.0,93,0.00,,,0.01,Wunderground v.1.15,2013-09-27 03:31:00,
2013-09-26 22:36:00,48.7,46.8,30.08,ENE,74,0.0,0.0,93,0.00,,,0.01,Wunderground v.1.15,2013-09-27 03:36:00,
2013-09-26 22:41:00,48.9,47.2,30.08,ENE,74,0.0,0.0,94,0.00,,,0.01,Wunderground v.1.15,2013-09-27 03:41:00,
2013-09-26 22:46:00,50.6,49.5,30.08,ENE,74,0.0,0.0,96,0.00,,,0.01,Wunderground v.1.15,2013-09-27 03:46:00,
2013-09-26 22:51:00,51.9,50.8,30.08,ENE,74,0.0,0.0,96,0.00,,,0.01,Wunderground v.1.15,2013-09-27 03:51:00,
2013-09-26 22:56:00,53.4,52.3,30.07,ENE,70,0.0,0.0,96,0.00,,,0.01,Wunderground v.1.15,2013-09-27 03:56:00,
2013-09-26 23:01:00,53.7,52.6,30.08,ENE,74,0.0,0.0,96,0.00,,,0.01,Wunderground v.1.15,2013-09-27 04:01:00,
2013-09-26 23:02:00,53.6,52.5,30.08,ENE,74,0.0,0.0,96,0.00,,,0.01,Wunderground v.1.15,2013-09-27 04:02:00,
2013-09-26 23:07:00,53.7,52.3,30.08,ENE,71,0.0,0.0,95,0.00,,,0.01,Wunderground v.1.15,2013-09-27 04:07:00,
2013-09-26 23:12:00,53.6,51.9,30.08,ENE,71,0.0,0.0,94,0.00,,,0.01,Wunderground v.1.15,2013-09-27 04:12:00,
2013-09-26 23:17:00,53.1,51.4,30.08,ENE,71,0.0,0.0,94,0.00,,,0.01,Wunderground v.1.15,2013-09-27 04:17:00,
2013-09-26 23:22:00,53.4,52.0,30.08,ENE,71,0.0,0.0,95,0.00,,,0.01,Wunderground v.1.15,2013-09-27 04:22:00,
2013-09-26 23:27:00,53.5,51.5,30.08,ENE,71,0.0,0.0,93,0.00,,,0.01,Wunderground v.1.15,2013-09-27 04:27:00,
2013-09-26 23:32:00,51.8,49.3,30.08,ENE,71,0.0,0.0,91,0.00,,,0.01,Wunderground v.1.15,2013-09-27 04:32:00,
2013-09-26 23:37:00,50.9,48.7,30.08,ENE,70,0.0,0.0,92,0.00,,,0.01,Wunderground v.1.15,2013-09-27 04:37:00,
2013-09-26 23:42:00,50.3,48.1,30.08,ENE,70,0.0,0.0,92,0.00,,,0.01,Wunderground v.1.15,2013-09-27 04:42:00,
2013-09-26 23:47:00,49.9,48.0,30.08,ENE,71,0.0,0.0,93,0.00,,,0.01,Wunderground v.1.15,2013-09-27 04:47:00,
2013-09-26 23:52:00,49.7,47.8,30.08,ENE,71,0.0,0.0,93,0.00,,,0.01,Wunderground v.1.15,2013-09-27 04:52:00,
2013-09-26 23:57:00,49.6,47.9,30.08,ENE,70,0.0,0.0,94,0.00,,,0.01,Wunderground v.1.15,2013-09-27 04:57:00,